Time;durP1;ratioP1;P1;durP2;ratioP2;P2;SDS_P1;SDS_P2;PMS_P1;PMS_P2;Temp;Humidity;BMP_temperature;BMP_pressure;BME280_temperature;BME280_humidity;BME280_pressure;Samples;Min_cycle;Max_cycle;Signal;HPM_P1;HPM_P2
2023/08/17 00:00:40;;;;;;;;;;;;;;;23.20;56.81;102088.75;5066942;28;19956;-46
2023/08/17 00:03:05;;;;;;;;;;;;;;;23.20;57.05;102088.75;5066684;28;19955;-45
2023/08/17 00:05:32;;;;;;;;;;;;;;;23.20;56.90;102096.06;5066067;28;19982;-45
2023/08/17 00:07:59;;;;;;;;;;;;;;;23.19;56.90;102089.78;5066439;28;20023;-45
2023/08/17 00:10:24;;;;;;;;;;;;;;;23.19;56.93;102081.66;5066367;28;19913;-45
2023/08/17 00:12:50;;;;;;;;;;;;;;;23.19;57.07;102081.66;5066643;28;19943;-46
2023/08/17 00:15:15;;;;;;;;;;;;;;;23.20;56.97;102079.78;5066340;28;19934;-46
2023/08/17 00:17:40;;;;;;;;;;;;;;;23.19;57.02;102076.22;5066521;28;19924;-45
2023/08/17 00:20:06;;;;;;;;;;;;;;;23.19;56.87;102081.66;5066611;28;19935;-47
2023/08/17 00:22:31;;;;;;;;;;;;;;;23.20;56.96;102074.34;5065603;28;19929;-46
2023/08/17 00:24:56;;;;;;;;;;;;;;;23.19;56.96;102076.22;5065581;28;19965;-46
2023/08/17 00:27:22;;;;;;;;;;;;;;;23.19;56.70;102076.22;5066629;28;19920;-45
2023/08/17 00:29:47;;;;;;;;;;;;;;;23.19;56.95;102064.50;5065832;28;19928;-45
2023/08/17 00:32:12;;;;;;;;;;;;;;;23.19;56.77;102062.66;5065740;28;19947;-46
2023/08/17 00:34:38;;;;;;;;;;;;;;;23.18;56.66;102047.38;5065884;28;19919;-45
2023/08/17 00:37:03;;;;;;;;;;;;;;;23.18;56.53;102050.06;5064399;28;19936;-46
2023/08/17 00:39:28;;;;;;;;;;;;;;;23.19;56.72;102062.66;5065756;28;19912;-48
2023/08/17 00:41:53;;;;;;;;;;;;;;;23.18;56.89;102063.66;5064389;28;19923;-46
2023/08/17 00:44:18;;;;;;;;;;;;;;;23.18;56.60;102063.66;5066065;28;19917;-46
2023/08/17 00:46:44;;;;;;;;;;;;;;;23.18;56.62;102060.94;5065837;28;19920;-44
2023/08/17 00:49:09;;;;;;;;;;;;;;;23.18;56.61;102065.50;5066036;28;20523;-45
2023/08/17 00:51:34;;;;;;;;;;;;;;;23.18;56.55;102068.22;5065516;28;20405;-45
2023/08/17 00:53:59;;;;;;;;;;;;;;;23.18;56.66;102063.66;5065293;28;19916;-46
2023/08/17 00:56:25;;;;;;;;;;;;;;;23.17;56.80;102061.97;5064452;28;19974;-46
2023/08/17 00:58:51;;;;;;;;;;;;;;;23.17;56.75;102070.09;5063932;28;19920;-44
2023/08/17 01:01:16;;;;;;;;;;;;;;;23.17;56.73;102070.09;5065810;28;19917;-47
2023/08/17 01:03:41;;;;;;;;;;;;;;;23.16;56.63;102060.28;5065835;28;20305;-45
2023/08/17 01:06:07;;;;;;;;;;;;;;;23.17;56.57;102078.22;5097199;28;19920;-46
2023/08/17 01:08:32;;;;;;;;;;;;;;;23.17;56.47;102072.81;5064760;28;19948;-46
2023/08/17 01:11:16;;;;;;;;;;;;;;;23.17;56.57;102069.25;5065330;28;19956;-47
2023/08/17 01:13:44;;;;;;;;;;;;;;;23.16;56.35;102073.84;5065611;28;19919;-46
2023/08/17 01:16:11;;;;;;;;;;;;;;;23.17;56.53;102069.25;5064919;28;19912;-48
2023/08/17 01:18:36;;;;;;;;;;;;;;;23.16;56.42;102059.44;5076945;28;19913;-47
2023/08/17 01:21:02;;;;;;;;;;;;;;;23.16;56.34;102062.13;5097264;28;19917;-45
2023/08/17 01:23:27;;;;;;;;;;;;;;;23.15;56.66;102053.16;5064659;28;19921;-45
2023/08/17 01:25:53;;;;;;;;;;;;;;;23.16;56.72;102067.56;5065066;28;19912;-48
2023/08/17 01:28:18;;;;;;;;;;;;;;;23.16;56.52;102062.97;5064972;28;19935;-47
2023/08/17 01:30:49;;;;;;;;;;;;;;;23.15;56.48;102061.28;5065011;28;19916;-46
2023/08/17 01:33:22;;;;;;;;;;;;;;;23.14;56.54;102056.00;5097705;28;19913;-45
2023/08/17 01:35:48;;;;;;;;;;;;;;;23.15;56.46;102060.41;5096368;28;19913;-44
2023/08/17 01:38:17;;;;;;;;;;;;;;;23.15;56.72;102055.88;5064601;28;19947;-45
2023/08/17 01:40:43;;;;;;;;;;;;;;;23.15;56.49;102065.84;5064782;28;19951;-45
2023/08/17 01:43:08;;;;;;;;;;;;;;;23.14;56.48;102059.56;5097450;28;19928;-46
2023/08/17 01:45:33;;;;;;;;;;;;;;;23.14;56.29;102056.84;5096945;28;19913;-46
2023/08/17 01:47:59;;;;;;;;;;;;;;;23.14;56.58;102046.00;5064679;28;19912;-46
2023/08/17 01:50:24;;;;;;;;;;;;;;;23.14;56.38;102051.44;5064291;28;19971;-46
2023/08/17 01:52:51;;;;;;;;;;;;;;;23.14;56.40;102054.16;5064547;28;19923;-45
2023/08/17 01:55:16;;;;;;;;;;;;;;;23.14;56.22;102046.00;5062645;28;19924;-46
2023/08/17 01:57:41;;;;;;;;;;;;;;;23.14;56.60;102050.59;5064800;28;19916;-45
2023/08/17 02:00:07;;;;;;;;;;;;;;;23.14;56.05;102046.00;5063249;28;19939;-46
2023/08/17 02:02:32;;;;;;;;;;;;;;;23.14;56.35;102047.88;5064527;28;19913;-47
2023/08/17 02:04:57;;;;;;;;;;;;;;;23.12;56.30;102045.34;5063808;28;19987;-44
2023/08/17 02:07:22;;;;;;;;;;;;;;;23.13;56.26;102048.91;5064334;28;19917;-46
2023/08/17 02:09:47;;;;;;;;;;;;;;;23.13;56.45;102046.19;5063698;28;20011;-47
2023/08/17 02:12:12;;;;;;;;;;;;;;;23.13;56.25;102043.47;5062653;28;20357;-46
2023/08/17 02:14:38;;;;;;;;;;;;;;;23.13;56.30;102048.91;5064579;28;20358;-47
2023/08/17 02:17:05;;;;;;;;;;;;;;;23.12;56.29;102037.22;5062953;28;19975;-45
2023/08/17 02:19:30;;;;;;;;;;;;;;;23.13;56.35;102038.06;5094229;28;19920;-46
2023/08/17 02:21:55;;;;;;;;;;;;;;;23.12;56.42;102039.91;5061641;28;20062;-45
2023/08/17 02:24:20;;;;;;;;;;;;;;;23.12;56.12;102037.22;5063986;28;19913;-44
2023/08/17 02:26:46;;;;;;;;;;;;;;;23.12;56.30;102039.06;5064119;28;20012;-44
2023/08/17 02:29:11;;;;;;;;;;;;;;;23.10;56.34;102033.78;5064103;28;19913;-45
2023/08/17 02:31:36;;;;;;;;;;;;;;;23.11;56.12;102031.97;5063560;28;19924;-45
2023/08/17 02:34:04;;;;;;;;;;;;;;;23.12;56.05;102033.66;5063991;28;19913;-45
2023/08/17 02:36:30;;;;;;;;;;;;;;;23.11;56.45;102029.25;5063978;28;19920;-45
2023/08/17 02:38:55;;;;;;;;;;;;;;;23.10;56.40;102022.94;5062298;28;20007;-46
2023/08/17 02:41:20;;;;;;;;;;;;;;;23.11;56.05;102026.53;5063787;28;19912;-45
2023/08/17 02:43:46;;;;;;;;;;;;;;;23.11;55.99;102010.25;5063683;28;19919;-46
2023/08/17 02:46:11;;;;;;;;;;;;;;;23.11;56.09;102012.97;5063758;28;19939;-45
2023/08/17 02:48:36;;;;;;;;;;;;;;;23.10;56.29;102011.25;5063694;28;19928;-46
2023/08/17 02:51:01;;;;;;;;;;;;;;;23.10;56.26;102009.38;5063838;28;19923;-44
2023/08/17 02:53:26;;;;;;;;;;;;;;;23.09;56.21;102007.69;5063333;28;20370;-45
2023/08/17 02:55:52;;;;;;;;;;;;;;;23.09;56.22;102007.69;5063287;28;19909;-44
2023/08/17 02:58:17;;;;;;;;;;;;;;;23.09;56.27;102002.28;5063574;28;19948;-45
2023/08/17 03:00:42;;;;;;;;;;;;;;;23.09;56.16;102007.69;5063810;28;19925;-45
2023/08/17 03:03:07;;;;;;;;;;;;;;;23.09;56.14;102010.41;5063381;28;19940;-44
2023/08/17 03:05:33;;;;;;;;;;;;;;;23.09;56.09;102006.84;5065319;28;19951;-45
2023/08/17 03:07:58;;;;;;;;;;;;;;;23.09;55.94;102015.00;5068068;28;19984;-44
2023/08/17 03:10:24;;;;;;;;;;;;;;;23.09;56.09;102021.25;5067595;28;19920;-47
2023/08/17 03:12:50;;;;;;;;;;;;;;;23.09;55.95;102015.00;5067471;28;19913;-44
2023/08/17 03:15:15;;;;;;;;;;;;;;;23.08;55.87;102022.28;5067768;28;19920;-44
2023/08/17 03:17:40;;;;;;;;;;;;;;;23.07;55.98;102020.59;5067475;28;19912;-47
2023/08/17 03:20:06;;;;;;;;;;;;;;;23.08;56.15;102016.00;5067744;28;19916;-44
2023/08/17 03:22:31;;;;;;;;;;;;;;;23.07;56.28;102023.31;5067213;28;19925;-45
2023/08/17 03:24:57;;;;;;;;;;;;;;;23.08;56.08;102024.16;5066267;28;19920;-47
2023/08/17 03:27:22;;;;;;;;;;;;;;;23.07;55.92;102023.31;5068022;28;19912;-46
2023/08/17 03:29:47;;;;;;;;;;;;;;;23.06;55.95;102027.00;5067087;28;19935;-45
2023/08/17 03:32:12;;;;;;;;;;;;;;;23.06;55.95;102027.00;5067499;28;19935;-45
2023/08/17 03:34:37;;;;;;;;;;;;;;;23.05;55.74;102019.91;5066698;28;19917;-45
2023/08/17 03:37:03;;;;;;;;;;;;;;;23.06;55.95;102020.75;5066836;28;19940;-44
2023/08/17 03:39:28;;;;;;;;;;;;;;;23.06;55.85;102029.72;5066762;28;19916;-46
2023/08/17 03:41:54;;;;;;;;;;;;;;;23.05;55.90;102019.91;5066952;28;19913;-46
2023/08/17 03:44:19;;;;;;;;;;;;;;;23.05;55.87;102019.91;5067187;28;19913;-45
2023/08/17 03:46:44;;;;;;;;;;;;;;;23.04;55.81;102017.38;5067071;28;19912;-45
2023/08/17 03:49:09;;;;;;;;;;;;;;;23.04;55.94;102017.38;5067154;28;20146;-45
2023/08/17 03:51:34;;;;;;;;;;;;;;;23.04;56.10;102020.94;5066980;28;19920;-46
2023/08/17 03:54:00;;;;;;;;;;;;;;;23.04;55.78;102017.38;5065708;28;20382;-46
2023/08/17 03:56:25;;;;;;;;;;;;;;;23.04;56.06;102009.22;5067257;28;19912;-45
2023/08/17 03:58:50;;;;;;;;;;;;;;;23.04;56.07;102009.22;5065419;28;19916;-46
2023/08/17 04:01:15;;;;;;;;;;;;;;;23.04;56.07;102001.09;5066519;28;19925;-45
2023/08/17 04:03:41;;;;;;;;;;;;;;;23.03;55.76;101997.53;5061241;28;19939;-45
2023/08/17 04:06:06;;;;;;;;;;;;;;;23.03;55.92;102005.69;5064793;28;19967;-45
2023/08/17 04:08:32;;;;;;;;;;;;;;;23.03;56.13;102013.81;5066260;28;20024;-45
2023/08/17 04:10:57;;;;;;;;;;;;;;;23.03;56.00;102011.09;5066457;28;19921;-44
2023/08/17 04:13:22;;;;;;;;;;;;;;;23.03;56.07;102013.81;5066248;28;19920;-47
2023/08/17 04:15:47;;;;;;;;;;;;;;;23.03;56.28;102013.81;5065962;28;20301;-45
2023/08/17 04:18:12;;;;;;;;;;;;;;;23.04;56.49;102006.53;5066039;28;20550;-46
2023/08/17 04:20:38;;;;;;;;;;;;;;;23.03;56.37;102016.53;5066246;28;20475;-46
2023/08/17 04:23:03;;;;;;;;;;;;;;;23.03;56.54;102013.81;5066346;28;20433;-44
2023/08/17 04:25:30;;;;;;;;;;;;;;;23.03;56.40;102007.53;5065384;28;20422;-46
2023/08/17 04:27:55;;;;;;;;;;;;;;;23.03;56.67;102010.25;5064621;28;19912;-45
2023/08/17 04:30:20;;;;;;;;;;;;;;;23.03;56.50;102007.53;5066086;28;19983;-45
2023/08/17 04:32:51;;;;;;;;;;;;;;;23.03;56.48;102007.53;5066281;28;20285;-44
2023/08/17 04:35:17;;;;;;;;;;;;;;;23.03;56.67;102010.25;5072364;28;20015;-46
2023/08/17 04:37:42;;;;;;;;;;;;;;;23.03;56.54;102002.97;5060060;28;20366;-45
2023/08/17 04:40:07;;;;;;;;;;;;;;;23.02;56.57;102009.38;5064718;28;19913;-45
2023/08/17 04:42:33;;;;;;;;;;;;;;;23.02;56.76;102014.81;5065931;28;19917;-45
2023/08/17 04:44:58;;;;;;;;;;;;;;;23.02;56.90;102011.25;5065851;28;19984;-46
2023/08/17 04:47:23;;;;;;;;;;;;;;;23.02;56.96;102003.97;5065705;28;19917;-50
2023/08/17 04:49:49;;;;;;;;;;;;;;;23.02;56.80;102003.13;5065883;28;19923;-47
2023/08/17 04:52:14;;;;;;;;;;;;;;;23.03;56.76;102004.84;5065950;28;19921;-47
2023/08/17 04:54:39;;;;;;;;;;;;;;;23.03;56.94;101999.41;5064987;28;20404;-48
2023/08/17 04:57:05;;;;;;;;;;;;;;;23.02;57.05;102001.25;5066067;28;19916;-46
2023/08/17 04:59:30;;;;;;;;;;;;;;;23.02;57.06;102000.41;5065779;28;19923;-46
2023/08/17 05:01:56;;;;;;;;;;;;;;;23.02;57.09;102005.81;5097719;28;19988;-47
2023/08/17 05:04:21;;;;;;;;;;;;;;;23.02;57.21;102008.53;5064449;28;19924;-47
2023/08/17 05:06:46;;;;;;;;;;;;;;;23.01;57.33;101999.56;5056452;28;20274;-45
2023/08/17 05:09:11;;;;;;;;;;;;;;;23.01;57.14;102002.28;5064589;28;19924;-46
2023/08/17 05:11:36;;;;;;;;;;;;;;;23.02;57.07;101997.69;5064340;28;19921;-48
2023/08/17 05:14:02;;;;;;;;;;;;;;;23.00;57.18;101992.44;5063969;28;19944;-59
2023/08/17 05:16:27;;;;;;;;;;;;;;;23.02;57.03;101992.25;5064858;28;19920;-60
2023/08/17 05:18:52;;;;;;;;;;;;;;;23.01;57.01;101999.56;5064959;28;19913;-59
2023/08/17 05:21:17;;;;;;;;;;;;;;;23.01;56.89;101994.13;5065317;28;19917;-59
2023/08/17 05:23:43;;;;;;;;;;;;;;;23.02;57.02;101995.81;5063966;28;19931;-59
2023/08/17 05:26:08;;;;;;;;;;;;;;;23.01;56.85;101996.84;5065305;28;19950;-60
2023/08/17 05:28:33;;;;;;;;;;;;;;;23.01;56.88;101990.56;5064214;28;19984;-59
2023/08/17 05:31:06;;;;;;;;;;;;;;;23.01;56.75;101991.41;5064771;28;19917;-59
2023/08/17 05:33:31;;;;;;;;;;;;;;;23.01;56.65;101987.88;5064969;28;19916;-48
2023/08/17 05:35:56;;;;;;;;;;;;;;;23.01;56.79;101993.28;5061188;28;19928;-46
2023/08/17 05:38:21;;;;;;;;;;;;;;;23.00;56.77;102000.59;5064657;28;19934;-47
2023/08/17 05:40:47;;;;;;;;;;;;;;;23.01;56.89;101987.88;5063486;28;19921;-48
2023/08/17 05:43:12;;;;;;;;;;;;;;;23.00;56.92;101991.59;5064067;28;20374;-50
2023/08/17 05:45:37;;;;;;;;;;;;;;;23.00;56.88;101992.44;5063505;28;19955;-47
2023/08/17 05:48:03;;;;;;;;;;;;;;;22.99;56.95;101998.88;5063721;28;19920;-48
2023/08/17 05:50:29;;;;;;;;;;;;;;;23.00;56.63;101995.16;5063642;28;19920;-45
2023/08/17 05:52:54;;;;;;;;;;;;;;;22.99;56.76;101990.75;5064282;28;19913;-47
2023/08/17 05:55:19;;;;;;;;;;;;;;;22.99;56.65;101989.91;5063922;28;20020;-46
2023/08/17 05:57:44;;;;;;;;;;;;;;;22.98;56.86;101996.31;5064270;28;19970;-51
2023/08/17 06:00:12;;;;;;;;;;;;;;;22.96;56.69;101999.22;5063608;28;19971;-47
2023/08/17 06:02:37;;;;;;;;;;;;;;;22.98;56.95;101996.31;5064506;28;19917;-46
2023/08/17 06:05:03;;;;;;;;;;;;;;;22.98;56.66;101999.03;5063410;28;19943;-46
2023/08/17 06:07:28;;;;;;;;;;;;;;;22.98;56.61;102001.75;5064567;28;19920;-49
2023/08/17 06:09:53;;;;;;;;;;;;;;;22.98;56.45;101999.03;5063159;28;19939;-46
2023/08/17 06:12:18;;;;;;;;;;;;;;;22.97;56.72;101997.34;5063556;28;19940;-48
2023/08/17 06:14:44;;;;;;;;;;;;;;;22.97;56.78;102006.34;5062802;28;19935;-45
2023/08/17 06:17:09;;;;;;;;;;;;;;;22.97;56.84;102011.75;5063576;28;20753;-48
2023/08/17 06:19:34;;;;;;;;;;;;;;;22.95;56.71;102006.50;5063528;28;19924;-48
2023/08/17 06:21:59;;;;;;;;;;;;;;;22.97;56.84;102013.63;5063504;28;19929;-45
2023/08/17 06:24:24;;;;;;;;;;;;;;;22.97;56.80;102019.06;5063605;28;19920;-47
2023/08/17 06:26:50;;;;;;;;;;;;;;;22.95;56.65;102011.94;5062550;28;19970;-47
2023/08/17 06:29:15;;;;;;;;;;;;;;;22.68;56.56;101983.25;5063014;28;20285;-47
2023/08/17 06:31:40;;;;;;;;;;;;;;;22.97;56.68;102021.75;5063263;28;19932;-46
2023/08/17 06:34:06;;;;;;;;;;;;;;;22.94;56.86;102018.38;5062737;28;19980;-47
2023/08/17 06:36:31;;;;;;;;;;;;;;;22.95;56.76;102020.06;5062936;28;19917;-45
2023/08/17 06:38:56;;;;;;;;;;;;;;;22.97;56.43;102016.34;5059991;28;19940;-45
2023/08/17 06:41:21;;;;;;;;;;;;;;;22.95;56.61;102016.53;5062826;28;19912;-45
2023/08/17 06:43:47;;;;;;;;;;;;;;;22.95;56.49;102022.78;5062386;28;19970;-46
2023/08/17 06:46:12;;;;;;;;;;;;;;;22.95;56.49;102017.38;5062976;28;19913;-45
2023/08/17 06:48:37;;;;;;;;;;;;;;;22.95;56.87;102028.22;5095058;28;19917;-47
2023/08/17 06:51:04;;;;;;;;;;;;;;;22.94;56.54;102026.53;5062564;28;19932;-45
2023/08/17 06:53:29;;;;;;;;;;;;;;;22.94;56.70;102029.25;5062926;28;19913;-47
2023/08/17 06:55:55;;;;;;;;;;;;;;;22.94;56.82;102023.81;5062633;28;19943;-49
2023/08/17 06:58:20;;;;;;;;;;;;;;;22.94;56.69;102031.09;5061835;28;19942;-47
2023/08/17 07:00:45;;;;;;;;;;;;;;;22.95;56.76;102032.78;5062154;28;19919;-45
2023/08/17 07:03:11;;;;;;;;;;;;;;;22.93;56.88;102030.22;5064521;28;19939;-45
2023/08/17 07:05:36;;;;;;;;;;;;;;;22.93;56.54;102032.94;5062082;28;19943;-47
2023/08/17 07:08:01;;;;;;;;;;;;;;;22.94;56.95;102031.09;5063095;28;19980;-45
2023/08/17 07:10:27;;;;;;;;;;;;;;;22.93;56.66;102038.38;5062154;28;19917;-45
2023/08/17 07:12:52;;;;;;;;;;;;;;;22.93;56.80;102029.38;5063315;28;20066;-46
2023/08/17 07:15:18;;;;;;;;;;;;;;;22.93;56.87;102032.09;5095465;28;19920;-47
2023/08/17 07:17:43;;;;;;;;;;;;;;;22.93;56.96;102040.22;5064426;28;19916;-47
2023/08/17 07:20:09;;;;;;;;;;;;;;;22.94;56.77;102041.94;5062906;28;19917;-46
2023/08/17 07:22:35;;;;;;;;;;;;;;;22.93;56.80;102038.38;5062606;28;19968;-47
2023/08/17 07:25:00;;;;;;;;;;;;;;;22.93;56.73;102034.81;5062621;28;19932;-48
2023/08/17 07:27:25;;;;;;;;;;;;;;;22.92;56.71;102036.69;5062524;28;20097;-44
2023/08/17 07:29:50;;;;;;;;;;;;;;;22.93;56.73;102037.53;5062281;28;20138;-45
2023/08/17 07:32:16;;;;;;;;;;;;;;;22.93;56.70;102034.81;5062695;28;19920;-48
2023/08/17 07:34:41;;;;;;;;;;;;;;;22.92;56.83;102043.97;5062504;28;19916;-45
2023/08/17 07:37:06;;;;;;;;;;;;;;;22.92;56.65;102044.81;5062499;28;19950;-46
2023/08/17 07:39:32;;;;;;;;;;;;;;;22.93;56.54;102051.06;5061012;28;20029;-45
2023/08/17 07:41:57;;;;;;;;;;;;;;;22.93;56.64;102049.22;5063283;28;19912;-47
2023/08/17 07:44:22;;;;;;;;;;;;;;;22.94;56.58;102052.81;5063067;28;19916;-48
2023/08/17 07:46:47;;;;;;;;;;;;;;;22.92;56.81;102058.38;5062862;28;19931;-45
2023/08/17 07:49:12;;;;;;;;;;;;;;;22.93;56.87;102051.94;5077955;28;19913;-47
2023/08/17 07:51:38;;;;;;;;;;;;;;;22.93;56.70;102051.94;5064849;28;19925;-48
2023/08/17 07:54:03;;;;;;;;;;;;;;;22.93;56.76;102054.63;5066698;28;19916;-48
2023/08/17 07:56:28;;;;;;;;;;;;;;;22.94;56.75;102055.50;5066674;28;19919;-46
2023/08/17 07:58:53;;;;;;;;;;;;;;;22.94;56.85;102060.94;5066495;28;19920;-45
2023/08/17 08:01:19;;;;;;;;;;;;;;;22.95;56.63;102062.63;5066436;28;19920;-45
2023/08/17 08:03:44;;;;;;;;;;;;;;;22.94;56.70;102063.66;5066474;28;19959;-45
2023/08/17 08:06:09;;;;;;;;;;;;;;;22.94;56.61;102055.50;5066088;28;19913;-44
2023/08/17 08:08:34;;;;;;;;;;;;;;;22.95;56.73;102051.78;5065999;28;19928;-45
2023/08/17 08:10:59;;;;;;;;;;;;;;;22.95;56.68;102059.91;5066578;28;19917;-48
2023/08/17 08:13:25;;;;;;;;;;;;;;;22.94;56.61;102060.94;5066471;28;19913;-44
2023/08/17 08:15:50;;;;;;;;;;;;;;;22.94;56.87;102053.66;5066583;28;19939;-47
2023/08/17 08:18:16;;;;;;;;;;;;;;;22.94;56.87;102059.06;5081414;28;19920;-44
2023/08/17 08:20:41;;;;;;;;;;;;;;;22.94;56.74;102066.38;5066239;28;19921;-46
2023/08/17 08:23:06;;;;;;;;;;;;;;;22.94;56.67;102053.66;5065979;28;20015;-44
2023/08/17 08:25:31;;;;;;;;;;;;;;;22.94;56.69;102056.34;5065870;28;19916;-45
2023/08/17 08:27:56;;;;;;;;;;;;;;;22.94;56.78;102056.34;5066028;28;19916;-47
2023/08/17 08:30:22;;;;;;;;;;;;;;;22.97;56.62;102059.72;5065891;28;19928;-49
2023/08/17 08:32:47;;;;;;;;;;;;;;;22.95;56.71;102062.63;5066278;28;20441;-45
2023/08/17 08:35:12;;;;;;;;;;;;;;;22.94;56.68;102061.78;5065783;28;19914;-44
2023/08/17 08:37:37;;;;;;;;;;;;;;;22.95;56.79;102062.63;5065609;28;19913;-46
2023/08/17 08:40:04;;;;;;;;;;;;;;;22.97;56.84;102057.03;5065391;28;19924;-47
2023/08/17 08:42:29;;;;;;;;;;;;;;;22.97;56.67;102059.72;5065595;28;19917;-44
2023/08/17 08:44:54;;;;;;;;;;;;;;;22.95;56.80;102046.34;5098553;28;20043;-45
2023/08/17 08:47:19;;;;;;;;;;;;;;;22.95;56.54;102049.91;5065657;28;19923;-49
2023/08/17 08:50:05;;;;;;;;;;;;;;;22.95;56.76;102038.22;5065861;28;19920;-45
2023/08/17 08:52:34;;;;;;;;;;;;;;;22.97;56.63;102035.31;5065373;28;19917;-45
2023/08/17 08:55:00;;;;;;;;;;;;;;;22.96;56.60;102039.91;5064203;28;19917;-47
2023/08/17 08:57:25;;;;;;;;;;;;;;;22.97;56.73;102040.75;5097749;28;19924;-45
2023/08/17 08:59:50;;;;;;;;;;;;;;;22.95;56.75;102041.78;5065545;28;19942;-45
2023/08/17 09:02:16;;;;;;;;;;;;;;;22.97;56.72;102048.88;5063455;28;19920;-49
2023/08/17 09:04:42;;;;;;;;;;;;;;;22.98;56.73;102050.56;5064926;28;19927;-46
2023/08/17 09:07:07;;;;;;;;;;;;;;;22.95;56.49;102044.47;5097528;28;19912;-46
2023/08/17 09:09:33;;;;;;;;;;;;;;;22.97;56.71;102046.16;5097616;28;19978;-46
2023/08/17 09:11:58;;;;;;;;;;;;;;;22.95;56.68;102039.06;5065107;28;19920;-44
2023/08/17 09:14:24;;;;;;;;;;;;;;;22.97;56.61;102047.03;5065141;28;19972;-47
2023/08/17 09:16:49;;;;;;;;;;;;;;;22.97;56.61;102040.75;5065375;28;19923;-48
2023/08/17 09:19:14;;;;;;;;;;;;;;;22.95;56.85;102030.94;5065126;28;19912;-49
2023/08/17 09:21:39;;;;;;;;;;;;;;;22.97;56.62;102025.31;5064099;28;20019;-48
2023/08/17 09:24:04;;;;;;;;;;;;;;;22.95;56.59;102030.06;5064439;28;19940;-46
2023/08/17 09:26:30;;;;;;;;;;;;;;;22.95;56.62;102033.63;5097286;28;19912;-47
2023/08/17 09:28:56;;;;;;;;;;;;;;;22.97;56.59;102040.75;5064967;28;19920;-47
2023/08/17 09:31:23;;;;;;;;;;;;;;;22.97;56.83;102040.75;5095966;28;19976;-45
2023/08/17 09:33:49;;;;;;;;;;;;;;;22.95;56.76;102041.78;5065225;28;19913;-46
2023/08/17 09:36:14;;;;;;;;;;;;;;;22.97;56.73;102040.75;5064484;28;19919;-44
2023/08/17 09:38:39;;;;;;;;;;;;;;;22.96;56.60;102034.47;5064743;28;19917;-46
2023/08/17 09:41:06;;;;;;;;;;;;;;;22.95;56.68;102039.06;5064435;28;19927;-45
2023/08/17 09:43:33;;;;;;;;;;;;;;;22.95;56.75;102036.34;5064676;28;19927;-45
2023/08/17 09:45:59;;;;;;;;;;;;;;;22.95;56.66;102038.22;5064830;28;19916;-45
2023/08/17 09:48:24;;;;;;;;;;;;;;;22.95;56.44;102030.06;5064726;28;19935;-48
2023/08/17 09:50:49;;;;;;;;;;;;;;;22.95;56.72;102030.06;5096852;28;19936;-49
2023/08/17 09:53:15;;;;;;;;;;;;;;;22.95;56.72;102033.63;5064944;28;19920;-46
2023/08/17 09:55:41;;;;;;;;;;;;;;;22.95;56.49;102036.34;5063799;28;19920;-46
2023/08/17 09:58:07;;;;;;;;;;;;;;;22.95;56.78;102035.50;5064552;28;19919;-46
2023/08/17 10:00:33;;;;;;;;;;;;;;;22.95;56.87;102035.50;5062783;28;19921;-45
2023/08/17 10:02:58;;;;;;;;;;;;;;;22.95;56.50;102030.94;5064326;28;19921;-48
2023/08/17 10:05:23;;;;;;;;;;;;;;;22.95;56.65;102024.66;5063502;28;19942;-45
2023/08/17 10:07:51;;;;;;;;;;;;;;;22.95;56.76;102027.38;5049544;28;19948;-44
2023/08/17 10:10:18;;;;;;;;;;;;;;;22.95;56.46;102032.78;5063698;28;19919;-45
2023/08/17 10:12:46;;;;;;;;;;;;;;;22.96;56.60;102029.06;5064491;28;19921;-44
2023/08/17 10:15:11;;;;;;;;;;;;;;;22.96;56.74;102029.06;5063816;28;19917;-44
2023/08/17 10:17:39;;;;;;;;;;;;;;;22.95;56.69;102013.81;5096584;28;19920;-46
2023/08/17 10:20:04;;;;;;;;;;;;;;;22.95;56.55;102020.06;5062614;28;20004;-44
2023/08/17 10:22:34;;;;;;;;;;;;;;;22.95;56.91;102019.22;5063678;28;19921;-46
2023/08/17 10:25:00;;;;;;;;;;;;;;;22.95;56.56;102011.94;5060952;28;19917;-45
2023/08/17 10:27:25;;;;;;;;;;;;;;;22.96;56.91;102007.34;5064372;28;20003;-44
2023/08/17 10:29:50;;;;;;;;;;;;;;;22.97;56.67;102011.75;5063774;28;19921;-46
2023/08/17 10:32:16;;;;;;;;;;;;;;;22.97;56.80;102014.47;5077854;28;20477;-44
2023/08/17 10:34:41;;;;;;;;;;;;;;;22.98;56.91;102010.78;5063503;28;19975;-45
2023/08/17 10:37:06;;;;;;;;;;;;;;;22.97;56.89;102011.75;5096417;28;19913;-45
2023/08/17 10:39:31;;;;;;;;;;;;;;;22.97;56.83;102002.78;5076443;28;19936;-47
2023/08/17 10:41:57;;;;;;;;;;;;;;;22.98;56.84;102001.75;5063950;28;19913;-43
2023/08/17 10:44:41;;;;;;;;;;;;;;;22.98;56.76;102005.34;5061492;28;19947;-45
2023/08/17 10:47:25;;;;;;;;;;;;;;;22.98;57.04;101999.03;5063619;28;19917;-47
2023/08/17 10:50:04;;;;;;;;;;;;;;;22.98;56.90;102002.63;5095688;28;19928;-46
2023/08/17 10:52:29;;;;;;;;;;;;;;;22.98;57.09;101997.22;5063395;28;19928;-45
2023/08/17 10:54:55;;;;;;;;;;;;;;;22.98;57.02;101997.22;5062936;28;19913;-47
2023/08/17 10:57:36;;;;;;;;;;;;;;;22.99;56.99;101995.34;5060484;28;19912;-44
2023/08/17 11:00:07;;;;;;;;;;;;;;;22.99;57.08;102003.47;5063347;28;19939;-48
2023/08/17 11:02:32;;;;;;;;;;;;;;;22.98;56.80;102002.63;5063069;28;20362;-49
2023/08/17 11:04:58;;;;;;;;;;;;;;;22.98;57.01;102002.63;5063239;28;19980;-49
2023/08/17 11:07:25;;;;;;;;;;;;;;;22.99;57.07;102006.19;5062036;28;19977;-45
2023/08/17 11:09:52;;;;;;;;;;;;;;;22.99;57.18;102003.47;5063685;28;20410;-50
2023/08/17 11:12:27;;;;;;;;;;;;;;;22.98;57.03;102002.63;5095362;28;19977;-49
2023/08/17 11:14:52;;;;;;;;;;;;;;;22.98;56.90;101994.50;5063574;28;19920;-51
2023/08/17 11:17:20;;;;;;;;;;;;;;;22.99;56.89;101995.34;5063521;28;19948;-47
2023/08/17 11:19:45;;;;;;;;;;;;;;;22.99;57.08;102000.75;5061345;28;19925;-48
2023/08/17 11:22:10;;;;;;;;;;;;;;;22.99;57.03;102000.75;5064978;28;19925;-47
2023/08/17 11:24:39;;;;;;;;;;;;;;;22.98;57.37;102005.34;5094589;28;20445;-49
2023/08/17 11:27:04;;;;;;;;;;;;;;;22.99;57.21;102003.47;5097762;28;19917;-48
2023/08/17 11:29:31;;;;;;;;;;;;;;;22.99;57.34;102003.47;5067371;28;19912;-45
2023/08/17 11:31:56;;;;;;;;;;;;;;;22.99;57.47;102003.47;5066794;28;19984;-58
2023/08/17 11:34:21;;;;;;;;;;;;;;;23.00;57.57;102003.28;5066990;28;19920;-57
2023/08/17 11:36:46;;;;;;;;;;;;;;;23.00;57.64;101997.88;5067138;28;19939;-58
2023/08/17 11:39:13;;;;;;;;;;;;;;;23.01;57.54;101993.28;5066684;28;19924;-58
2023/08/17 11:41:39;;;;;;;;;;;;;;;23.01;57.69;101994.13;5067299;28;19920;-57
2023/08/17 11:44:04;;;;;;;;;;;;;;;23.02;57.54;101989.56;5065769;28;19936;-57
2023/08/17 11:46:29;;;;;;;;;;;;;;;23.03;57.51;101993.97;5067316;28;20008;-57
2023/08/17 11:48:54;;;;;;;;;;;;;;;23.03;57.74;101988.56;5066620;28;19985;-56
2023/08/17 11:51:32;;;;;;;;;;;;;;;23.04;57.77;101992.97;5098992;28;19916;-57
2023/08/17 11:54:00;;;;;;;;;;;;;;;23.04;57.54;101993.81;5064866;28;19912;-55
2023/08/17 11:56:26;;;;;;;;;;;;;;;23.05;57.66;101986.50;5067978;28;19959;-56
2023/08/17 11:58:51;;;;;;;;;;;;;;;23.05;57.79;101984.63;5064469;28;19936;-58
2023/08/17 12:01:16;;;;;;;;;;;;;;;23.06;57.93;101989.03;5066601;28;19923;-57
2023/08/17 12:03:41;;;;;;;;;;;;;;;23.07;57.83;101988.03;5066959;28;19944;-52
2023/08/17 12:06:07;;;;;;;;;;;;;;;23.08;57.72;101978.03;5065841;28;19951;-45
2023/08/17 12:08:33;;;;;;;;;;;;;;;23.09;57.70;101991.41;5066518;28;19935;-48
2023/08/17 12:10:58;;;;;;;;;;;;;;;23.09;57.53;101985.16;5065916;28;19939;-48
2023/08/17 12:13:33;;;;;;;;;;;;;;;23.09;57.67;101986.00;5066764;28;20374;-46
2023/08/17 12:15:59;;;;;;;;;;;;;;;23.10;57.62;101974.13;5064828;28;19912;-45
2023/08/17 12:18:24;;;;;;;;;;;;;;;23.10;57.75;101978.69;5065613;28;20389;-44
2023/08/17 12:20:53;;;;;;;;;;;;;;;23.11;57.71;101983.13;5065801;28;19984;-45
2023/08/17 12:23:18;;;;;;;;;;;;;;;23.11;57.81;101986.69;5064649;28;19921;-45
2023/08/17 12:25:43;;;;;;;;;;;;;;;23.11;57.57;101988.56;5065373;28;19948;-45
2023/08/17 12:28:09;;;;;;;;;;;;;;;23.11;57.85;101983.13;5065862;28;19964;-45